Scroll down
FLIGHT INFORMATION
British Airways

BAW164

At Arrival Gate

LLBG
 EGLL
DATE: 2022-03-17
GATE: 
GATE DEPARTURE: 14:26
TAKEOFF: 14:38
DATE: 2022-03-17
GATE: 557
LANDING: 19:34
GATE ARRIVAL: 19:40
FLIGHT DATA
Crew: 
Speed: 
919 kph
Altitude: 
40,014 ft
Stage Length: 
3,588.9 km
Block Time: 
5.2 hrs
Flight Time: 
4.9 hrs
Fuel Used: 
30,057 kg
Cleared Route: LLBG SUVAS TEZAK USEBE OTHON VAXOS FOXLI RDS LARKI URNIL IKARO PIPEN MES NEMIS MOCNA LUPIS GIKAS DIKNI FSK DISOR LONTA DOLEV PEVAL SAFFA RONAG ARGAX ELMUR MANEG RIPUS DITON HOC NATLI LUL IXILU RESPO RLP ROTSI KOTUN ABNUR DIMAL ALESO EGLL
TRACK DATA
50,000 ft 1,000 kts
AIRCRAFT INFO AND CUMULATIVE STATS
Aircraft Type: 
B772
Registration: 
SELCAL: 
BJKL
MSN/LN: 
30304 / 268
Operator: 
Total Flights: 
1
Total Block Time: 
5.2 hrs
Total Flight Time: 
4.9 hrs
Total Fuel Used: 
30,057 kg
DATALINK LOG | Newest first | Current as of: 2022-10-05 22:28:55
LABEL SEQUENCE CONTENT Dn/Up
5Z452217 MAR 22 19:44:59z / FLT DECK GOOD / ACF POS GOOD / GRND SERVICES GOOD / MAINT GOOD▼ Dn
QD411819:40 15.6▼ Dn
QC341319:34▼ Dn
2U3028EGLL 171850Z AUTO 29006KT 270V340 9999 BKN042 10/03 Q1035▲ Up
2S3108EGLL▼ Dn
GA0352GATE 557▲ Up
GR0342EGLL 19:33 HI-VAL NO DIPL/VIP NO▼ Dn
2U5554EGLL 171820Z AUTO 27008KT 9999 BKN044 11/04 Q1034▲ Up
2S5534EGLL▼ Dn
QB392414:38▼ Dn
QA261114:26 82.1▼ Dn
5Z085417 MAR 22 14:08:46z / FLT DECK GOOD / ACF POS IMPROPER SPOT / GRND SERVICES GOOD / MAINT GOOD▼ Dn
2U0554LLBG 171350Z 29010KT 9999 FEW050 15/05 Q1022 NOSIG▲ Up
2S0551LLBG▼ Dn
A30147CLEARED TO EGLL VIA SUVA1E SUVAS N128 OTHON UN128 RDS UL609 MES UG18 FSK UL608 DISOR LONTA UL608 DOLEV PEVAL SAFFA UZ613 RONAG UL613 KOTUN ABNUR UT10 ALESO ALES1H. SQUAWK 3135.▲ Up
B30147LLBG EGLL BAW164 G-YMMC Z ▼ Dn
Q04936[LINK ACK]▲ Up
Q04936[LINK TEST]▼ Dn


AIRCRAFT HISTORY
FLIGHT DATE FLIGHT NO. ORIGIN DESTINATION CLEARED ROUTE BLOCK TIME FLIGHT TIME FUEL USED PILOT
2022-03-17BAW164LLBG EGLL LLBG SUVAS TEZAK USEBE OTHON VAXOS FOXLI RDS LARKI URNIL IKARO PIPEN MES NEMIS MOCNA LUPIS GIKAS DIKNI FSK DISOR LONTA DOLEV PEVAL SAFFA RONAG ARGAX ELMUR MANEG RIPUS DITON HOC NATLI LUL IXILU RESPO RLP ROTSI KOTUN ABNUR DIMAL ALESO EGLL5.2 hrs4.9 hrs66,265 lbAnton Vind